createdAt,value
2019-02-07T00:01:02.573Z,99186.50
2019-02-07T00:03:29.313Z,99178.19
2019-02-07T00:05:56.037Z,99171.14
2019-02-07T00:08:22.801Z,99176.95
2019-02-07T00:10:49.942Z,99172.53
2019-02-07T00:13:17.091Z,99162.12
2019-02-07T00:15:43.967Z,99162.84
2019-02-07T00:18:11.083Z,99153.00
2019-02-07T00:20:38.518Z,99153.09
2019-02-07T00:23:08.774Z,99150.42
2019-02-07T00:25:36.073Z,99151.34
2019-02-07T00:28:04.514Z,99143.43
2019-02-07T00:30:31.336Z,99140.00
2019-02-07T00:32:58.317Z,99124.20
2019-02-07T00:35:28.179Z,99128.50
2019-02-07T00:37:55.041Z,99127.68
2019-02-07T00:40:21.810Z,99110.05
2019-02-07T00:42:48.565Z,99112.55
2019-02-07T00:45:17.626Z,99111.97
2019-02-07T00:47:46.224Z,99101.05
2019-02-07T00:50:13.337Z,99103.45
2019-02-07T00:52:40.590Z,99096.07
2019-02-07T00:55:09.405Z,99094.27
2019-02-07T00:57:36.778Z,99097.16
2019-02-07T01:00:05.467Z,99089.05
2019-02-07T01:02:32.739Z,99076.52
2019-02-07T01:05:00.198Z,99071.08
2019-02-07T01:07:27.141Z,99068.27
2019-02-07T01:09:54.048Z,99059.38
2019-02-07T01:12:20.898Z,99061.58
2019-02-07T01:14:47.674Z,99061.14
2019-02-07T01:17:14.565Z,99062.23
2019-02-07T01:19:44.376Z,99056.02
2019-02-07T01:22:11.123Z,99060.41
2019-02-07T01:24:37.879Z,99064.73
2019-02-07T01:27:04.744Z,99067.91
2019-02-07T01:29:31.976Z,99063.41
2019-02-07T01:31:59.122Z,99073.50
2019-02-07T01:34:26.406Z,99072.56
2019-02-07T01:36:53.286Z,99073.97
2019-02-07T01:39:20.029Z,99064.73
2019-02-07T01:41:46.805Z,99067.20
2019-02-07T01:44:13.640Z,99053.83
2019-02-07T01:46:40.619Z,99050.02
2019-02-07T01:49:07.616Z,99053.12
2019-02-07T01:51:37.460Z,99041.34
2019-02-07T01:54:05.800Z,99027.94
2019-02-07T01:56:32.748Z,99026.26
2019-02-07T01:58:59.634Z,99025.84
2019-02-07T02:01:26.491Z,99018.91
2019-02-07T02:03:53.417Z,99023.96
2019-02-07T02:06:20.218Z,99008.30
2019-02-07T02:08:46.982Z,99008.47
2019-02-07T02:11:13.774Z,99006.05
2019-02-07T02:13:40.556Z,99010.95
2019-02-07T02:16:07.762Z,98990.66
2019-02-07T02:18:34.631Z,98990.18
2019-02-07T02:21:01.542Z,98964.72
2019-02-07T02:23:28.462Z,98974.52
2019-02-07T02:25:55.216Z,98973.68
2019-02-07T02:28:22.384Z,98972.94
2019-02-07T02:30:49.181Z,98970.02
2019-02-07T02:33:16.021Z,98970.64
2019-02-07T02:35:42.923Z,98997.67
2019-02-07T02:38:10.368Z,98989.80
2019-02-07T02:40:37.120Z,98951.32
2019-02-07T02:43:04.017Z,98953.30
2019-02-07T02:45:37.705Z,98944.98
2019-02-07T02:48:01.928Z,98962.29
2019-02-07T02:50:28.883Z,98939.91
2019-02-07T02:52:55.694Z,98931.38
2019-02-07T02:55:42.408Z,98919.27
2019-02-07T02:58:09.439Z,98920.99
2019-02-07T03:00:55.038Z,98907.96
2019-02-07T03:03:30.966Z,98909.30
2019-02-07T03:06:15.765Z,98901.58
2019-02-07T03:09:19.184Z,98892.77
2019-02-07T03:12:05.660Z,98888.98
2019-02-07T03:15:01.448Z,98890.99
2019-02-07T03:17:46.674Z,98886.02
2019-02-07T03:20:25.462Z,98885.63
2019-02-07T03:23:10.282Z,98877.31
2019-02-07T03:25:59.429Z,98875.14
2019-02-07T03:28:44.670Z,98868.09
2019-02-07T03:31:43.317Z,98871.59
2019-02-07T03:34:28.861Z,98864.83
2019-02-07T03:37:15.243Z,98868.87
2019-02-07T03:40:04.613Z,98858.39
2019-02-07T03:42:53.749Z,98858.03
2019-02-07T03:46:02.395Z,98851.38
2019-02-07T03:48:44.346Z,98844.19
2019-02-07T03:51:31.019Z,98846.83
2019-02-07T03:54:26.063Z,98842.15
2019-02-07T03:57:18.638Z,98847.45
2019-02-07T03:59:58.886Z,98835.02
2019-02-07T04:02:57.343Z,98852.05
2019-02-07T04:05:34.481Z,98824.97
2019-02-07T04:08:26.607Z,98827.33
2019-02-07T04:11:11.872Z,98860.52
2019-02-07T04:14:04.164Z,98827.49
2019-02-07T04:16:53.512Z,98841.17
2019-02-07T04:19:55.129Z,98839.84
2019-02-07T04:22:40.328Z,98836.85
2019-02-07T04:25:25.753Z,98855.41
2019-02-07T04:28:11.241Z,98835.58
2019-02-07T04:31:03.681Z,98821.97
2019-02-07T04:33:47.235Z,98813.00
2019-02-07T04:36:39.722Z,98803.66
2019-02-07T04:39:27.038Z,98828.52
2019-02-07T04:42:12.040Z,98813.21
2019-02-07T04:45:04.436Z,98819.63
2019-02-07T04:47:49.980Z,98807.19
2019-02-07T04:50:39.874Z,98808.95
2019-02-07T04:53:44.605Z,98800.98
2019-02-07T04:56:37.129Z,98814.69
2019-02-07T04:59:21.215Z,98806.06
2019-02-07T05:02:06.357Z,98807.52
2019-02-07T05:04:59.553Z,98813.23
2019-02-07T05:07:44.567Z,98796.22
2019-02-07T05:10:29.643Z,98786.66
2019-02-07T05:13:14.632Z,98782.86
2019-02-07T05:16:04.529Z,98771.27
2019-02-07T05:18:56.060Z,98774.13
2019-02-07T05:21:40.857Z,98776.16
2019-02-07T05:24:15.776Z,98770.37
2019-02-07T05:27:04.856Z,98774.17
2019-02-07T05:29:53.757Z,98765.42
2019-02-07T05:32:49.059Z,98765.42
2019-02-07T05:35:26.268Z,98765.83
2019-02-07T05:38:24.645Z,98763.02
2019-02-07T05:41:14.618Z,98760.46
2019-02-07T05:43:58.667Z,98767.82
2019-02-07T05:46:51.057Z,98765.13
2019-02-07T05:49:41.579Z,98751.70
2019-02-07T05:52:34.047Z,98751.70
2019-02-07T05:55:23.404Z,98753.75
2019-02-07T05:58:08.479Z,98753.14
2019-02-07T06:00:57.158Z,98760.25
2019-02-07T06:03:42.151Z,98736.53
2019-02-07T06:06:37.819Z,98740.91
2019-02-07T06:09:26.547Z,98733.23
2019-02-07T06:12:11.705Z,98718.73
2019-02-07T06:14:57.115Z,98716.44
2019-02-07T06:17:50.299Z,98694.37
2019-02-07T06:20:28.640Z,98694.37
2019-02-07T06:23:12.731Z,98685.45
2019-02-07T06:26:11.461Z,98685.45
2019-02-07T06:29:09.807Z,98681.73
2019-02-07T06:32:06.905Z,98679.36
2019-02-07T06:34:57.574Z,98690.77
2019-02-07T06:37:43.982Z,98695.19
2019-02-07T06:40:40.844Z,98690.78
2019-02-07T06:43:30.536Z,98685.84
2019-02-07T06:46:26.323Z,98685.84
2019-02-07T06:49:11.653Z,98685.91
2019-02-07T06:51:51.042Z,98711.23
2019-02-07T06:54:43.665Z,98679.12
2019-02-07T06:57:29.060Z,98676.88
2019-02-07T07:00:34.609Z,98675.11
2019-02-07T07:03:24.235Z,98683.07
2019-02-07T07:06:06.337Z,98712.70
2019-02-07T07:08:53.035Z,98663.62
2019-02-07T07:11:42.409Z,98663.62
2019-02-07T07:14:44.227Z,98676.47
2019-02-07T07:17:35.374Z,98668.48
2019-02-07T07:20:35.247Z,98672.96
2019-02-07T07:23:27.781Z,98674.25
2019-02-07T07:26:16.868Z,98674.25
2019-02-07T07:29:01.924Z,98664.97
2019-02-07T07:31:55.193Z,98676.92
2019-02-07T07:34:40.358Z,98675.66
2019-02-07T07:37:39.186Z,98669.71
2019-02-07T07:40:20.378Z,98669.71
2019-02-07T07:43:01.590Z,98677.42
2019-02-07T07:45:40.993Z,98677.42
2019-02-07T07:48:41.091Z,98680.05
2019-02-07T07:51:37.979Z,98675.85
2019-02-07T07:54:37.300Z,98667.14
2019-02-07T07:57:29.858Z,98667.14
2019-02-07T08:00:19.086Z,98664.69
2019-02-07T08:03:15.116Z,98677.52
2019-02-07T08:06:02.299Z,98660.41
2019-02-07T08:08:47.284Z,98660.41
2019-02-07T08:11:39.703Z,98660.74
2019-02-07T08:14:15.392Z,98658.44
2019-02-07T08:16:59.194Z,98651.82
2019-02-07T08:19:46.235Z,98661.16
2019-02-07T08:22:31.467Z,98658.03
2019-02-07T08:25:20.585Z,98658.03
2019-02-07T08:28:05.987Z,98656.72
2019-02-07T08:30:55.261Z,98656.72
2019-02-07T08:33:54.306Z,98670.88
2019-02-07T08:36:39.496Z,98664.53
2019-02-07T08:39:37.466Z,98662.11
2019-02-07T08:42:36.170Z,98662.11
2019-02-07T08:45:22.520Z,98658.73
2019-02-07T08:47:59.429Z,98662.05
2019-02-07T08:50:44.881Z,98661.50
2019-02-07T08:53:28.429Z,98660.25
2019-02-07T08:56:23.888Z,98665.04
2019-02-07T08:59:04.454Z,98651.32
2019-02-07T09:01:54.578Z,98651.32
2019-02-07T09:04:43.204Z,98663.87
2019-02-07T09:07:41.761Z,98657.17
2019-02-07T09:13:32.467Z,98666.13
2019-02-07T09:16:13.260Z,98668.67
2019-02-07T09:19:05.476Z,98668.67
2019-02-07T09:21:46.872Z,98668.19
2019-02-07T09:24:33.340Z,98654.95
2019-02-07T09:27:18.335Z,98660.30
2019-02-07T09:30:03.447Z,98651.83
2019-02-07T09:33:00.573Z,98649.36
2019-02-07T09:35:42.496Z,98657.47
2019-02-07T09:38:27.540Z,98657.47
2019-02-07T09:41:20.147Z,98652.13
2019-02-07T09:44:24.671Z,98652.13
2019-02-07T09:47:10.294Z,98662.30
2019-02-07T09:49:46.826Z,98662.95
2019-02-07T09:52:44.896Z,98662.95
2019-02-07T09:55:22.630Z,98650.36
2019-02-07T09:58:07.706Z,98660.73
2019-02-07T10:00:57.282Z,98660.73
2019-02-07T10:03:33.538Z,98656.83
2019-02-07T10:06:18.620Z,98669.77
2019-02-07T10:09:05.228Z,98669.77
2019-02-07T10:11:51.630Z,98665.47
2019-02-07T10:14:34.746Z,98659.59
2019-02-07T10:17:19.912Z,98666.13
2019-02-07T10:20:18.641Z,98677.63
2019-02-07T10:23:03.666Z,98663.80
2019-02-07T10:25:52.417Z,98659.77
2019-02-07T10:28:54.096Z,98663.19
2019-02-07T10:31:46.472Z,98660.06
2019-02-07T10:34:35.835Z,98663.11
2019-02-07T10:37:21.056Z,98649.41
2019-02-07T10:40:11.089Z,98653.85
2019-02-07T10:42:51.338Z,98650.00
2019-02-07T10:45:44.806Z,98650.00
2019-02-07T10:48:31.283Z,98645.09
2019-02-07T10:51:28.108Z,98649.23
2019-02-07T10:54:20.819Z,98649.23
2019-02-07T10:57:13.595Z,98648.08
2019-02-07T10:59:50.922Z,98646.38
2019-02-07T11:02:32.722Z,98646.38
2019-02-07T11:05:14.788Z,98634.56
2019-02-07T11:08:03.101Z,98634.56
2019-02-07T11:10:46.580Z,98627.72
2019-02-07T11:13:38.576Z,98640.41
2019-02-07T11:16:18.525Z,98642.23
2019-02-07T11:19:03.476Z,98635.42
2019-02-07T11:21:43.069Z,98645.91
2019-02-07T11:24:29.987Z,98645.91
2019-02-07T11:27:16.646Z,98650.22
2019-02-07T11:30:08.855Z,98631.27
2019-02-07T11:32:46.700Z,98639.52
2019-02-07T11:35:31.602Z,98639.52
2019-02-07T11:38:24.321Z,98617.35
2019-02-07T11:41:16.520Z,98628.56
2019-02-07T11:44:06.706Z,98628.56
2019-02-07T11:47:05.669Z,98626.08
2019-02-07T11:49:51.903Z,98620.26
2019-02-07T11:52:41.395Z,98621.02
2019-02-07T11:55:27.813Z,98617.75
2019-02-07T11:58:06.537Z,98617.75
2019-02-07T12:00:51.659Z,98604.44
2019-02-07T12:03:33.163Z,98622.34
2019-02-07T12:06:25.642Z,98625.58
2019-02-07T12:09:01.792Z,98624.92
2019-02-07T12:12:03.399Z,98624.92
2019-02-07T12:14:48.085Z,98618.58
2019-02-07T12:17:34.827Z,98629.05
2019-02-07T12:20:23.878Z,98629.05
2019-02-07T12:23:08.839Z,98630.22
2019-02-07T12:25:48.158Z,98625.41
2019-02-07T12:28:46.909Z,98635.64
2019-02-07T12:31:31.837Z,98628.90
2019-02-07T12:34:05.342Z,98628.90
2019-02-07T12:36:51.716Z,98624.09
2019-02-07T12:39:36.783Z,98616.28
2019-02-07T12:42:26.167Z,98616.43
2019-02-07T12:45:17.402Z,98616.43
2019-02-07T12:48:04.119Z,98617.41
2019-02-07T12:51:08.647Z,98616.58
2019-02-07T12:54:03.335Z,98616.58
2019-02-07T12:57:01.654Z,98613.04
2019-02-07T12:59:57.888Z,98604.69
2019-02-07T13:02:47.353Z,98593.41
2019-02-07T13:05:43.137Z,98593.41
2019-02-07T13:08:25.797Z,98599.82
2019-02-07T13:10:58.947Z,98594.95
2019-02-07T13:13:37.177Z,98594.95
2019-02-07T13:16:23.775Z,98598.98
2019-02-07T13:19:22.243Z,98595.33
2019-02-07T13:21:59.264Z,98592.76
2019-02-07T13:24:48.011Z,98587.56
2019-02-07T13:27:34.503Z,98585.47
2019-02-07T13:30:30.438Z,98585.47
2019-02-07T13:33:22.329Z,98603.12
2019-02-07T13:36:00.512Z,98612.20
2019-02-07T13:38:59.907Z,98612.20
2019-02-07T13:41:52.823Z,98619.83
2019-02-07T13:44:39.115Z,98631.48
2019-02-07T13:47:44.281Z,98625.62
2019-02-07T13:50:32.501Z,98623.53
2019-02-07T13:53:34.010Z,98623.53
2019-02-07T13:56:13.385Z,98638.50
2019-02-07T13:59:04.489Z,98646.10
2019-02-07T14:01:51.397Z,98642.13
2019-02-07T14:04:47.815Z,98642.13
2019-02-07T14:07:32.702Z,98650.95
2019-02-07T14:10:08.203Z,98643.81
2019-02-07T14:13:04.156Z,98654.23
2019-02-07T14:15:53.540Z,98654.23
2019-02-07T14:18:38.671Z,98651.41
2019-02-07T14:21:24.271Z,98660.92
2019-02-07T14:24:20.444Z,98653.84
2019-02-07T14:26:55.560Z,98649.73
2019-02-07T14:29:43.835Z,98633.39
2019-02-07T14:32:33.958Z,98650.98
2019-02-07T14:35:12.504Z,98651.39
2019-02-07T14:37:50.816Z,98658.22
2019-02-07T14:40:27.601Z,98660.90
2019-02-07T14:43:09.358Z,98653.02
2019-02-07T14:46:01.750Z,98654.33
2019-02-07T14:48:29.432Z,98652.50
2019-02-07T14:50:56.533Z,98663.91
2019-02-07T14:53:23.569Z,98667.61
2019-02-07T14:55:50.744Z,98666.06
2019-02-07T14:58:18.182Z,98667.63
2019-02-07T15:00:45.094Z,98667.61
2019-02-07T15:03:12.040Z,98671.27
2019-02-07T15:05:39.464Z,98668.13
2019-02-07T15:08:06.392Z,98679.12
2019-02-07T15:10:33.240Z,98679.38
2019-02-07T15:13:01.342Z,98684.81
2019-02-07T15:15:28.387Z,98675.95
2019-02-07T15:17:55.892Z,98677.53
2019-02-07T15:20:26.288Z,98675.27
2019-02-07T15:22:51.763Z,98674.38
2019-02-07T15:25:20.816Z,98664.59
2019-02-07T15:27:47.843Z,98674.58
2019-02-07T15:30:15.820Z,98675.36
2019-02-07T15:32:43.228Z,98679.35
2019-02-07T15:35:16.858Z,98679.16
2019-02-07T15:37:44.120Z,98679.64
2019-02-07T15:40:13.194Z,98690.92
2019-02-07T15:42:40.240Z,98683.61
2019-02-07T15:45:08.808Z,98678.95
2019-02-07T15:47:37.181Z,98684.44
2019-02-07T15:50:05.381Z,98684.09
2019-02-07T15:52:34.826Z,98684.09
2019-02-07T15:55:03.312Z,98678.92
2019-02-07T15:57:30.534Z,98681.44
2019-02-07T16:00:00.454Z,98683.55
2019-02-07T16:02:31.697Z,98677.75
2019-02-07T16:05:00.542Z,98673.06
2019-02-07T16:07:27.568Z,98679.38
2019-02-07T16:09:56.624Z,98679.38
2019-02-07T16:12:26.295Z,98677.19
2019-02-07T16:14:53.122Z,98676.04
2019-02-07T16:17:20.634Z,98682.95
2019-02-07T16:19:48.958Z,98682.95
2019-02-07T16:22:16.072Z,98687.95
2019-02-07T16:24:43.030Z,98691.09
2019-02-07T16:27:09.912Z,98691.87
2019-02-07T16:29:37.408Z,98692.18
2019-02-07T16:32:04.316Z,98700.55
2019-02-07T16:34:31.198Z,98705.78
2019-02-07T16:36:58.147Z,98713.31
2019-02-07T16:39:25.810Z,98723.50
2019-02-07T16:41:52.680Z,98721.91
2019-02-07T16:44:19.582Z,98722.38
2019-02-07T16:46:46.801Z,98711.58
2019-02-07T16:49:13.737Z,98716.33
2019-02-07T16:51:41.668Z,98712.64
2019-02-07T16:54:08.794Z,98720.74
2019-02-07T16:56:35.647Z,98719.36
2019-02-07T16:59:03.300Z,98719.36
2019-02-07T17:01:30.078Z,98719.62
2019-02-07T17:03:57.002Z,98725.09
2019-02-07T17:06:24.096Z,98735.05
2019-02-07T17:08:50.982Z,98736.37
2019-02-07T17:11:19.054Z,98755.50
2019-02-07T17:13:47.447Z,98755.50
2019-02-07T17:16:14.940Z,98751.86
2019-02-07T17:18:41.844Z,98751.13
2019-02-07T17:21:12.550Z,98752.83
2019-02-07T17:23:37.504Z,98756.01
2019-02-07T17:26:04.382Z,98751.56
2019-02-07T17:28:31.214Z,98762.80
2019-02-07T17:30:57.994Z,98761.77
2019-02-07T17:33:25.154Z,98758.26
2019-02-07T17:35:52.077Z,98760.52
2019-02-07T17:38:18.870Z,98798.58
2019-02-07T17:40:46.061Z,98771.05
2019-02-07T17:43:12.945Z,98771.05
2019-02-07T17:45:40.305Z,98755.77
2019-02-07T17:48:08.309Z,98773.42
2019-02-07T17:50:35.469Z,98772.31
2019-02-07T17:53:03.582Z,98765.93
2019-02-07T17:55:32.754Z,98772.78
2019-02-07T17:58:03.138Z,98772.78
2019-02-07T18:00:46.027Z,98780.62
2019-02-07T18:03:12.776Z,98779.20
2019-02-07T18:05:40.079Z,98792.38
2019-02-07T18:08:07.681Z,98792.75
2019-02-07T18:10:34.554Z,98792.75
2019-02-07T18:13:02.201Z,98810.74
2019-02-07T18:15:29.388Z,98810.74
2019-02-07T18:17:57.869Z,98811.85
2019-02-07T18:20:24.756Z,98817.86
2019-02-07T18:22:54.568Z,98825.49
2019-02-07T18:25:21.393Z,98825.49
2019-02-07T18:27:48.367Z,98827.22
2019-02-07T18:30:16.746Z,98837.20
2019-02-07T18:32:43.739Z,98842.09
2019-02-07T18:35:10.508Z,98847.08
2019-02-07T18:37:37.323Z,98850.11
2019-02-07T18:40:05.406Z,98850.11
2019-02-07T18:42:32.351Z,98857.75
2019-02-07T18:45:01.105Z,98846.19
2019-02-07T18:47:28.103Z,98855.51
2019-02-07T18:49:55.429Z,98860.00
2019-02-07T18:52:22.423Z,98858.23
2019-02-07T18:54:51.965Z,98868.22
2019-02-07T18:57:18.741Z,98870.84
2019-02-07T18:59:45.808Z,98868.98
2019-02-07T19:02:14.797Z,98871.34
2019-02-07T19:04:42.098Z,98870.19
2019-02-07T19:07:09.174Z,98863.41
2019-02-07T19:09:36.051Z,98872.53
2019-02-07T19:12:04.668Z,98873.28
2019-02-07T19:14:31.574Z,98861.06
2019-02-07T19:16:59.650Z,98859.27
2019-02-07T19:19:29.193Z,98859.27
2019-02-07T19:21:57.484Z,98866.73
2019-02-07T19:24:24.682Z,98852.91
2019-02-07T19:26:51.547Z,98861.23
2019-02-07T19:29:18.418Z,98867.53
2019-02-07T19:31:45.191Z,98867.53
2019-02-07T19:34:12.113Z,98865.87
2019-02-07T19:36:38.933Z,98868.95
2019-02-07T19:39:08.408Z,98868.95
2019-02-07T19:41:35.493Z,98874.19
2019-02-07T19:44:02.925Z,98874.19
2019-02-07T19:46:29.833Z,98887.30
2019-02-07T19:48:59.919Z,98892.16
2019-02-07T19:51:26.894Z,98880.77
2019-02-07T19:53:56.093Z,98884.19
2019-02-07T19:56:23.199Z,98884.19
2019-02-07T19:58:50.004Z,98886.86
2019-02-07T20:01:20.503Z,98889.04
2019-02-07T20:03:47.258Z,98891.24
2019-02-07T20:06:18.961Z,98891.24
2019-02-07T20:08:46.105Z,98897.59
2019-02-07T20:11:12.882Z,98896.92
2019-02-07T20:13:39.650Z,98894.31
2019-02-07T20:16:06.581Z,98899.30
2019-02-07T20:18:33.554Z,98899.86
2019-02-07T20:21:00.708Z,98908.70
2019-02-07T20:23:27.630Z,98908.70
2019-02-07T20:25:54.425Z,98906.83
2019-02-07T20:28:21.531Z,98898.65
2019-02-07T20:33:16.518Z,98900.16
2019-02-07T20:35:43.304Z,98900.37
2019-02-07T20:38:12.216Z,98907.48
2019-02-07T20:40:39.637Z,98896.36
2019-02-07T20:43:06.984Z,98905.25
2019-02-07T20:45:34.199Z,98901.92
2019-02-07T20:48:01.380Z,98906.05
2019-02-07T20:50:29.563Z,98906.05
2019-02-07T20:52:56.483Z,98905.61
2019-02-07T20:55:23.253Z,98905.61
2019-02-07T20:57:50.361Z,98909.69
2019-02-07T21:00:29.041Z,98906.13
2019-02-07T21:02:56.166Z,98905.20
2019-02-07T21:05:23.183Z,98906.08
2019-02-07T21:07:50.084Z,98914.19
2019-02-07T21:10:18.165Z,98911.97
2019-02-07T21:12:45.031Z,98911.97
2019-02-07T21:15:18.647Z,98909.53
2019-02-07T21:17:43.075Z,98915.34
2019-02-07T21:20:11.786Z,98915.34
2019-02-07T21:22:38.702Z,98903.78
2019-02-07T21:25:09.651Z,98912.45
2019-02-07T21:27:36.419Z,98900.84
2019-02-07T21:30:03.892Z,98900.84
2019-02-07T21:32:31.091Z,98911.59
2019-02-07T21:34:58.396Z,98922.75
2019-02-07T21:37:25.701Z,98924.46
2019-02-07T21:39:53.153Z,98924.46
2019-02-07T21:42:22.453Z,98946.59
2019-02-07T21:44:50.196Z,98938.86
2019-02-07T21:47:17.554Z,98948.28
2019-02-07T21:49:44.654Z,98948.28
2019-02-07T21:52:11.851Z,98947.80
2019-02-07T21:54:38.876Z,98970.70
2019-02-07T21:57:06.108Z,98970.70
2019-02-07T21:59:32.992Z,98976.51
2019-02-07T22:01:59.866Z,98976.51
2019-02-07T22:04:26.720Z,98979.45
2019-02-07T22:06:53.600Z,98987.11
2019-02-07T22:09:20.461Z,99004.72
2019-02-07T22:11:47.208Z,99004.72
2019-02-07T22:14:15.423Z,98999.84
2019-02-07T22:16:42.293Z,99013.07
2019-02-07T22:19:09.380Z,99013.07
2019-02-07T22:21:36.166Z,99003.03
2019-02-07T22:24:05.934Z,99010.79
2019-02-07T22:26:32.676Z,99010.79
2019-02-07T22:28:59.702Z,99029.83
2019-02-07T22:31:26.700Z,99011.33
2019-02-07T22:33:54.091Z,99011.33
2019-02-07T22:36:20.967Z,99024.38
2019-02-07T22:38:47.778Z,99013.59
2019-02-07T22:41:14.502Z,99019.31
2019-02-07T22:43:41.268Z,99018.96
2019-02-07T22:46:08.076Z,99018.96
2019-02-07T22:48:35.008Z,99012.59
2019-02-07T22:51:01.891Z,99015.03
2019-02-07T22:53:31.582Z,99018.00
2019-02-07T22:55:58.710Z,99019.33
2019-02-07T22:58:25.529Z,99019.33
2019-02-07T23:01:23.315Z,99023.20
2019-02-07T23:03:56.292Z,99023.44
2019-02-07T23:06:23.020Z,99028.73
2019-02-07T23:08:49.851Z,99037.67
2019-02-07T23:11:16.611Z,99037.67
2019-02-07T23:13:46.830Z,99038.13
2019-02-07T23:16:13.597Z,99041.78
2019-02-07T23:18:40.354Z,99034.48
2019-02-07T23:21:07.290Z,99034.48
2019-02-07T23:23:34.126Z,99028.23
2019-02-07T23:26:00.861Z,99011.19
2019-02-07T23:28:27.615Z,99019.15
2019-02-07T23:30:54.398Z,99037.67
2019-02-07T23:33:21.187Z,99037.67
2019-02-07T23:35:47.997Z,99019.50
2019-02-07T23:38:18.113Z,99044.13
2019-02-07T23:40:45.019Z,99044.41
2019-02-07T23:43:11.901Z,99036.54
2019-02-07T23:45:38.664Z,99036.54
2019-02-07T23:48:05.454Z,99052.09
2019-02-07T23:50:32.475Z,99052.09
2019-02-07T23:52:59.234Z,99045.89
2019-02-07T23:55:26.008Z,99066.34
2019-02-07T23:57:52.747Z,99048.95
